sensor_id;sensor_type;location;lat;lon;timestamp;pressure;altitude;pressure_sealevel;temperature;humidity
57656;BME280;43482;53.334;6.744;2022-11-20T00:02:09;101363.72;;;1.08;100.00
57656;BME280;43482;53.334;6.744;2022-11-20T00:04:34;101362.91;;;1.07;100.00
57656;BME280;43482;53.334;6.744;2022-11-20T00:06:59;101371.69;;;1.05;100.00
57656;BME280;43482;53.334;6.744;2022-11-20T00:09:25;101375.78;;;1.09;100.00
57656;BME280;43482;53.334;6.744;2022-11-20T00:11:50;101360.97;;;1.11;100.00
57656;BME280;43482;53.334;6.744;2022-11-20T00:14:16;101333.53;;;0.88;100.00
57656;BME280;43482;53.334;6.744;2022-11-20T00:16:41;101361.19;;;1.06;100.00
57656;BME280;43482;53.334;6.744;2022-11-20T00:19:07;101362.78;;;1.09;100.00
57656;BME280;43482;53.334;6.744;2022-11-20T00:21:32;101337.34;;;0.98;100.00
57656;BME280;43482;53.334;6.744;2022-11-20T00:23:58;101354.78;;;1.13;100.00
57656;BME280;43482;53.334;6.744;2022-11-20T00:26:25;101364.25;;;1.14;100.00
57656;BME280;43482;53.334;6.744;2022-11-20T00:28:58;101355.31;;;1.20;100.00
57656;BME280;43482;53.334;6.744;2022-11-20T00:31:24;101363.03;;;1.21;100.00
57656;BME280;43482;53.334;6.744;2022-11-20T00:33:50;101352.03;;;1.16;100.00
57656;BME280;43482;53.334;6.744;2022-11-20T00:36:20;101373.19;;;1.26;100.00
57656;BME280;43482;53.334;6.744;2022-11-20T00:38:46;101378.09;;;1.32;100.00
57656;BME280;43482;53.334;6.744;2022-11-20T00:41:14;101376.19;;;1.36;100.00
57656;BME280;43482;53.334;6.744;2022-11-20T00:43:39;101371.22;;;1.31;100.00
57656;BME280;43482;53.334;6.744;2022-11-20T00:46:14;101366.56;;;1.20;100.00
57656;BME280;43482;53.334;6.744;2022-11-20T00:48:40;101344.28;;;0.97;100.00
57656;BME280;43482;53.334;6.744;2022-11-20T00:51:06;101361.34;;;1.03;100.00
57656;BME280;43482;53.334;6.744;2022-11-20T00:53:31;101337.13;;;1.02;100.00
57656;BME280;43482;53.334;6.744;2022-11-20T00:55:59;101342.22;;;1.04;100.00
57656;BME280;43482;53.334;6.744;2022-11-20T00:58:29;101343.09;;;0.87;100.00
57656;BME280;43482;53.334;6.744;2022-11-20T01:01:00;101339.91;;;0.80;100.00
57656;BME280;43482;53.334;6.744;2022-11-20T01:03:26;101334.72;;;0.80;100.00
57656;BME280;43482;53.334;6.744;2022-11-20T01:05:51;101336.94;;;0.71;100.00
57656;BME280;43482;53.334;6.744;2022-11-20T01:08:16;101346.63;;;0.67;100.00
57656;BME280;43482;53.334;6.744;2022-11-20T01:10:42;101336.59;;;0.78;100.00
57656;BME280;43482;53.334;6.744;2022-11-20T01:13:07;101341.00;;;0.59;100.00
57656;BME280;43482;53.334;6.744;2022-11-20T01:15:51;101335.63;;;0.62;100.00
57656;BME280;43482;53.334;6.744;2022-11-20T01:18:16;101319.22;;;0.61;100.00
57656;BME280;43482;53.334;6.744;2022-11-20T01:20:42;101352.31;;;0.75;100.00
57656;BME280;43482;53.334;6.744;2022-11-20T01:23:07;101324.78;;;0.71;100.00
57656;BME280;43482;53.334;6.744;2022-11-20T01:25:34;101353.84;;;0.97;100.00
57656;BME280;43482;53.334;6.744;2022-11-20T01:27:59;101331.59;;;0.91;100.00
57656;BME280;43482;53.334;6.744;2022-11-20T01:30:25;101337.03;;;1.04;100.00
57656;BME280;43482;53.334;6.744;2022-11-20T01:32:50;101335.06;;;1.09;100.00
57656;BME280;43482;53.334;6.744;2022-11-20T01:35:16;101320.78;;;1.00;100.00
57656;BME280;43482;53.334;6.744;2022-11-20T01:37:41;101336.03;;;1.07;100.00
57656;BME280;43482;53.334;6.744;2022-11-20T01:40:07;101320.53;;;1.05;100.00
57656;BME280;43482;53.334;6.744;2022-11-20T01:42:32;101319.47;;;1.09;100.00
57656;BME280;43482;53.334;6.744;2022-11-20T01:45:50;101331.53;;;1.28;100.00
57656;BME280;43482;53.334;6.744;2022-11-20T01:48:19;101335.59;;;1.33;100.00
57656;BME280;43482;53.334;6.744;2022-11-20T01:50:45;101326.78;;;1.36;100.00
57656;BME280;43482;53.334;6.744;2022-11-20T01:53:14;101330.13;;;1.38;100.00
57656;BME280;43482;53.334;6.744;2022-11-20T01:55:44;101304.75;;;1.26;100.00
57656;BME280;43482;53.334;6.744;2022-11-20T01:58:11;101303.84;;;1.27;100.00
57656;BME280;43482;53.334;6.744;2022-11-20T02:00:37;101322.16;;;1.41;100.00
57656;BME280;43482;53.334;6.744;2022-11-20T02:03:12;101320.25;;;1.44;100.00
57656;BME280;43482;53.334;6.744;2022-11-20T02:05:45;101315.75;;;1.48;100.00
57656;BME280;43482;53.334;6.744;2022-11-20T02:08:13;101286.41;;;1.29;100.00
57656;BME280;43482;53.334;6.744;2022-11-20T02:10:39;101298.03;;;1.21;100.00
57656;BME280;43482;53.334;6.744;2022-11-20T02:13:05;101292.84;;;1.04;100.00
57656;BME280;43482;53.334;6.744;2022-11-20T02:15:49;101282.75;;;0.80;100.00
57656;BME280;43482;53.334;6.744;2022-11-20T02:18:16;101293.31;;;0.95;100.00
57656;BME280;43482;53.334;6.744;2022-11-20T02:20:44;101288.56;;;1.03;100.00
57656;BME280;43482;53.334;6.744;2022-11-20T02:25:55;101292.06;;;1.19;100.00
57656;BME280;43482;53.334;6.744;2022-11-20T02:28:20;101277.63;;;1.14;100.00
57656;BME280;43482;53.334;6.744;2022-11-20T02:30:47;101286.84;;;1.19;100.00
57656;BME280;43482;53.334;6.744;2022-11-20T02:33:12;101287.47;;;1.25;100.00
57656;BME280;43482;53.334;6.744;2022-11-20T02:35:42;101271.38;;;1.18;100.00
57656;BME280;43482;53.334;6.744;2022-11-20T02:38:08;101263.47;;;1.19;100.00
57656;BME280;43482;53.334;6.744;2022-11-20T02:40:34;101277.22;;;1.21;100.00
57656;BME280;43482;53.334;6.744;2022-11-20T02:43:00;101275.56;;;1.20;100.00
57656;BME280;43482;53.334;6.744;2022-11-20T02:45:25;101275.63;;;1.19;100.00
57656;BME280;43482;53.334;6.744;2022-11-20T02:47:51;101254.03;;;1.01;100.00
57656;BME280;43482;53.334;6.744;2022-11-20T02:50:16;101274.28;;;1.12;100.00
57656;BME280;43482;53.334;6.744;2022-11-20T02:52:42;101239.31;;;1.00;100.00
57656;BME280;43482;53.334;6.744;2022-11-20T02:55:08;101262.88;;;1.14;100.00
57656;BME280;43482;53.334;6.744;2022-11-20T02:57:33;101258.59;;;1.13;100.00
57656;BME280;43482;53.334;6.744;2022-11-20T02:59:58;101257.91;;;1.10;100.00
57656;BME280;43482;53.334;6.744;2022-11-20T03:02:24;101254.63;;;1.06;100.00
57656;BME280;43482;53.334;6.744;2022-11-20T03:04:49;101243.25;;;0.91;100.00
57656;BME280;43482;53.334;6.744;2022-11-20T03:07:14;101258.06;;;1.07;100.00
57656;BME280;43482;53.334;6.744;2022-11-20T03:09:40;101251.34;;;1.02;100.00
57656;BME280;43482;53.334;6.744;2022-11-20T03:12:05;101255.38;;;1.08;100.00
57656;BME280;43482;53.334;6.744;2022-11-20T03:14:31;101256.56;;;1.02;100.00
57656;BME280;43482;53.334;6.744;2022-11-20T03:16:57;101242.78;;;1.00;100.00
57656;BME280;43482;53.334;6.744;2022-11-20T03:19:23;101227.56;;;0.93;100.00
57656;BME280;43482;53.334;6.744;2022-11-20T03:21:48;101237.44;;;1.03;100.00
57656;BME280;43482;53.334;6.744;2022-11-20T03:24:14;101234.59;;;1.08;100.00
57656;BME280;43482;53.334;6.744;2022-11-20T03:26:40;101247.28;;;1.14;100.00
57656;BME280;43482;53.334;6.744;2022-11-20T03:29:05;101246.38;;;0.98;100.00
57656;BME280;43482;53.334;6.744;2022-11-20T03:31:33;101236.72;;;1.00;100.00
57656;BME280;43482;53.334;6.744;2022-11-20T03:33:59;101245.69;;;1.12;100.00
57656;BME280;43482;53.334;6.744;2022-11-20T03:36:25;101244.75;;;1.13;100.00
57656;BME280;43482;53.334;6.744;2022-11-20T03:38:53;101225.56;;;0.98;100.00
57656;BME280;43482;53.334;6.744;2022-11-20T03:41:24;101242.16;;;1.13;100.00
57656;BME280;43482;53.334;6.744;2022-11-20T03:43:58;101245.25;;;1.19;100.00
57656;BME280;43482;53.334;6.744;2022-11-20T03:46:24;101208.66;;;1.07;100.00
57656;BME280;43482;53.334;6.744;2022-11-20T03:48:50;101227.22;;;1.16;100.00
57656;BME280;43482;53.334;6.744;2022-11-20T03:51:16;101232.63;;;1.29;100.00
57656;BME280;43482;53.334;6.744;2022-11-20T03:53:44;101229.78;;;1.34;100.00
57656;BME280;43482;53.334;6.744;2022-11-20T03:56:11;101223.59;;;1.36;100.00
57656;BME280;43482;53.334;6.744;2022-11-20T03:58:38;101201.47;;;1.12;100.00
57656;BME280;43482;53.334;6.744;2022-11-20T04:03:37;101213.66;;;1.27;100.00
57656;BME280;43482;53.334;6.744;2022-11-20T04:06:08;101207.53;;;1.28;100.00
57656;BME280;43482;53.334;6.744;2022-11-20T04:08:34;101209.56;;;1.39;100.00
57656;BME280;43482;53.334;6.744;2022-11-20T04:11:12;101209.66;;;1.37;100.00
57656;BME280;43482;53.334;6.744;2022-11-20T04:13:39;101199.22;;;1.21;100.00
57656;BME280;43482;53.334;6.744;2022-11-20T04:16:06;101190.16;;;1.13;100.00
57656;BME280;43482;53.334;6.744;2022-11-20T04:18:32;101192.50;;;1.17;100.00
57656;BME280;43482;53.334;6.744;2022-11-20T04:20:58;101182.53;;;1.10;100.00
57656;BME280;43482;53.334;6.744;2022-11-20T04:23:24;101192.84;;;1.11;100.00
57656;BME280;43482;53.334;6.744;2022-11-20T04:25:50;101185.69;;;0.99;100.00
57656;BME280;43482;53.334;6.744;2022-11-20T04:28:16;101183.72;;;0.87;100.00
57656;BME280;43482;53.334;6.744;2022-11-20T04:30:41;101189.84;;;0.86;100.00
57656;BME280;43482;53.334;6.744;2022-11-20T04:33:07;101187.25;;;0.86;100.00
57656;BME280;43482;53.334;6.744;2022-11-20T04:35:36;101185.94;;;0.94;100.00
57656;BME280;43482;53.334;6.744;2022-11-20T04:38:03;101185.41;;;0.88;100.00
57656;BME280;43482;53.334;6.744;2022-11-20T04:40:29;101146.59;;;0.67;100.00
57656;BME280;43482;53.334;6.744;2022-11-20T04:42:55;101180.88;;;0.91;100.00
57656;BME280;43482;53.334;6.744;2022-11-20T04:45:21;101169.63;;;0.91;100.00
57656;BME280;43482;53.334;6.744;2022-11-20T04:47:47;101177.56;;;1.05;100.00
57656;BME280;43482;53.334;6.744;2022-11-20T04:50:12;101173.19;;;0.90;100.00
57656;BME280;43482;53.334;6.744;2022-11-20T04:52:37;101163.22;;;0.80;100.00
57656;BME280;43482;53.334;6.744;2022-11-20T04:55:03;101163.06;;;0.68;100.00
57656;BME280;43482;53.334;6.744;2022-11-20T04:57:29;101168.31;;;0.66;100.00
57656;BME280;43482;53.334;6.744;2022-11-20T04:59:54;101162.06;;;0.70;100.00
57656;BME280;43482;53.334;6.744;2022-11-20T05:02:20;101167.25;;;0.70;100.00
57656;BME280;43482;53.334;6.744;2022-11-20T05:04:45;101156.56;;;0.59;100.00
57656;BME280;43482;53.334;6.744;2022-11-20T05:07:10;101162.84;;;0.55;100.00
57656;BME280;43482;53.334;6.744;2022-11-20T05:09:36;101155.88;;;0.38;100.00
57656;BME280;43482;53.334;6.744;2022-11-20T05:12:01;101143.97;;;0.34;100.00
57656;BME280;43482;53.334;6.744;2022-11-20T05:14:27;101140.59;;;0.32;100.00
57656;BME280;43482;53.334;6.744;2022-11-20T05:16:52;101138.25;;;0.27;100.00
57656;BME280;43482;53.334;6.744;2022-11-20T05:19:17;101135.06;;;0.22;100.00
57656;BME280;43482;53.334;6.744;2022-11-20T05:21:43;101133.13;;;0.26;100.00
57656;BME280;43482;53.334;6.744;2022-11-20T05:24:08;101106.16;;;0.11;100.00
57656;BME280;43482;53.334;6.744;2022-11-20T05:26:33;101098.31;;;-0.05;100.00
57656;BME280;43482;53.334;6.744;2022-11-20T05:28:59;101120.00;;;0.11;100.00
57656;BME280;43482;53.334;6.744;2022-11-20T05:31:25;101111.53;;;0.08;100.00
57656;BME280;43482;53.334;6.744;2022-11-20T05:33:51;101129.69;;;0.25;100.00
57656;BME280;43482;53.334;6.744;2022-11-20T05:36:17;101137.72;;;0.38;100.00
57656;BME280;43482;53.334;6.744;2022-11-20T05:38:43;101116.19;;;0.36;100.00
57656;BME280;43482;53.334;6.744;2022-11-20T05:41:16;101130.72;;;0.56;100.00
57656;BME280;43482;53.334;6.744;2022-11-20T05:43:44;101134.63;;;0.65;100.00
57656;BME280;43482;53.334;6.744;2022-11-20T05:46:11;101138.91;;;0.66;100.00
57656;BME280;43482;53.334;6.744;2022-11-20T05:48:40;101137.72;;;0.71;100.00
57656;BME280;43482;53.334;6.744;2022-11-20T05:51:08;101142.63;;;0.77;100.00
57656;BME280;43482;53.334;6.744;2022-11-20T05:53:35;101130.22;;;0.82;100.00
57656;BME280;43482;53.334;6.744;2022-11-20T05:56:03;101124.69;;;0.89;100.00
57656;BME280;43482;53.334;6.744;2022-11-20T05:58:30;101132.44;;;1.06;100.00
57656;BME280;43482;53.334;6.744;2022-11-20T06:01:09;101117.59;;;1.08;100.00
57656;BME280;43482;53.334;6.744;2022-11-20T06:03:36;101110.81;;;0.90;100.00
57656;BME280;43482;53.334;6.744;2022-11-20T06:06:03;101120.88;;;0.96;100.00
57656;BME280;43482;53.334;6.744;2022-11-20T06:08:29;101123.88;;;1.04;100.00
57656;BME280;43482;53.334;6.744;2022-11-20T06:10:54;101130.59;;;1.08;100.00
57656;BME280;43482;53.334;6.744;2022-11-20T06:13:20;101097.06;;;0.88;100.00
57656;BME280;43482;53.334;6.744;2022-11-20T06:15:52;101099.53;;;0.89;100.00
57656;BME280;43482;53.334;6.744;2022-11-20T06:18:18;101112.47;;;0.91;100.00
57656;BME280;43482;53.334;6.744;2022-11-20T06:20:45;101089.06;;;0.75;100.00
57656;BME280;43482;53.334;6.744;2022-11-20T06:23:10;101114.31;;;0.89;100.00
57656;BME280;43482;53.334;6.744;2022-11-20T06:25:42;101119.81;;;0.82;100.00
57656;BME280;43482;53.334;6.744;2022-11-20T06:28:08;101120.84;;;0.80;100.00
57656;BME280;43482;53.334;6.744;2022-11-20T06:30:34;101098.50;;;0.60;100.00
57656;BME280;43482;53.334;6.744;2022-11-20T06:32:59;101114.34;;;0.71;100.00
57656;BME280;43482;53.334;6.744;2022-11-20T06:35:25;101107.31;;;0.73;100.00
57656;BME280;43482;53.334;6.744;2022-11-20T06:37:50;101120.25;;;0.75;100.00
57656;BME280;43482;53.334;6.744;2022-11-20T06:40:15;101124.25;;;0.80;100.00
57656;BME280;43482;53.334;6.744;2022-11-20T06:42:41;101113.13;;;0.78;100.00
57656;BME280;43482;53.334;6.744;2022-11-20T06:45:07;101128.91;;;0.91;100.00
57656;BME280;43482;53.334;6.744;2022-11-20T06:47:33;101103.91;;;0.73;100.00
57656;BME280;43482;53.334;6.744;2022-11-20T06:49:58;101119.19;;;0.95;100.00
57656;BME280;43482;53.334;6.744;2022-11-20T06:52:24;101107.84;;;0.80;100.00
57656;BME280;43482;53.334;6.744;2022-11-20T06:54:49;101125.47;;;0.91;100.00
57656;BME280;43482;53.334;6.744;2022-11-20T06:57:14;101119.00;;;0.98;100.00
57656;BME280;43482;53.334;6.744;2022-11-20T06:59:40;101123.63;;;0.93;100.00
57656;BME280;43482;53.334;6.744;2022-11-20T07:02:09;101118.03;;;1.00;100.00
57656;BME280;43482;53.334;6.744;2022-11-20T07:04:35;101106.19;;;0.95;100.00
57656;BME280;43482;53.334;6.744;2022-11-20T07:07:01;101101.31;;;0.89;100.00
57656;BME280;43482;53.334;6.744;2022-11-20T07:09:26;101124.50;;;1.09;100.00
57656;BME280;43482;53.334;6.744;2022-11-20T07:11:51;101108.97;;;1.08;100.00
57656;BME280;43482;53.334;6.744;2022-11-20T07:14:17;101125.09;;;1.30;100.00
57656;BME280;43482;53.334;6.744;2022-11-20T07:16:42;101137.94;;;1.49;100.00
57656;BME280;43482;53.334;6.744;2022-11-20T07:19:07;101132.31;;;1.57;100.00
57656;BME280;43482;53.334;6.744;2022-11-20T07:21:33;101131.94;;;1.63;100.00
57656;BME280;43482;53.334;6.744;2022-11-20T07:23:58;101131.63;;;1.69;100.00
57656;BME280;43482;53.334;6.744;2022-11-20T07:26:23;101128.25;;;1.67;100.00
57656;BME280;43482;53.334;6.744;2022-11-20T07:28:49;101130.44;;;1.75;100.00
57656;BME280;43482;53.334;6.744;2022-11-20T07:31:14;101134.19;;;1.85;100.00
57656;BME280;43482;53.334;6.744;2022-11-20T07:33:40;101124.78;;;1.82;100.00
57656;BME280;43482;53.334;6.744;2022-11-20T07:36:05;101125.81;;;1.80;100.00
57656;BME280;43482;53.334;6.744;2022-11-20T07:38:30;101115.47;;;1.78;100.00
57656;BME280;43482;53.334;6.744;2022-11-20T07:40:56;101115.41;;;1.80;100.00
57656;BME280;43482;53.334;6.744;2022-11-20T07:43:23;101123.63;;;1.88;100.00
57656;BME280;43482;53.334;6.744;2022-11-20T07:45:49;101137.38;;;1.90;100.00
57656;BME280;43482;53.334;6.744;2022-11-20T07:48:14;101129.56;;;1.90;100.00
57656;BME280;43482;53.334;6.744;2022-11-20T07:50:39;101109.28;;;1.81;100.00
57656;BME280;43482;53.334;6.744;2022-11-20T07:53:05;101125.28;;;1.89;100.00
57656;BME280;43482;53.334;6.744;2022-11-20T07:55:31;101118.22;;;1.91;100.00
57656;BME280;43482;53.334;6.744;2022-11-20T07:57:57;101125.88;;;1.94;100.00
57656;BME280;43482;53.334;6.744;2022-11-20T08:00:24;101097.94;;;1.82;100.00
57656;BME280;43482;53.334;6.744;2022-11-20T08:02:50;101131.25;;;1.91;100.00
57656;BME280;43482;53.334;6.744;2022-11-20T08:05:15;101118.16;;;1.93;100.00
57656;BME280;43482;53.334;6.744;2022-11-20T08:07:42;101120.66;;;1.94;100.00
57656;BME280;43482;53.334;6.744;2022-11-20T08:10:10;101129.03;;;1.99;100.00
57656;BME280;43482;53.334;6.744;2022-11-20T08:12:36;101129.72;;;2.03;100.00
57656;BME280;43482;53.334;6.744;2022-11-20T08:15:20;101134.44;;;1.96;100.00
57656;BME280;43482;53.334;6.744;2022-11-20T08:17:45;101120.94;;;1.90;100.00
57656;BME280;43482;53.334;6.744;2022-11-20T08:20:11;101122.78;;;1.72;100.00
57656;BME280;43482;53.334;6.744;2022-11-20T08:22:36;101120.03;;;1.75;100.00
57656;BME280;43482;53.334;6.744;2022-11-20T08:25:02;101109.47;;;1.62;100.00
57656;BME280;43482;53.334;6.744;2022-11-20T08:27:27;101101.81;;;1.59;100.00
57656;BME280;43482;53.334;6.744;2022-11-20T08:29:53;101121.91;;;1.57;100.00
57656;BME280;43482;53.334;6.744;2022-11-20T08:32:18;101119.06;;;1.61;100.00
57656;BME280;43482;53.334;6.744;2022-11-20T08:34:43;101122.78;;;1.72;100.00
57656;BME280;43482;53.334;6.744;2022-11-20T08:37:09;101125.75;;;1.66;100.00
57656;BME280;43482;53.334;6.744;2022-11-20T08:39:34;101116.53;;;1.60;100.00
57656;BME280;43482;53.334;6.744;2022-11-20T08:41:59;101126.09;;;1.59;100.00
57656;BME280;43482;53.334;6.744;2022-11-20T08:44:25;101129.28;;;1.64;100.00
57656;BME280;43482;53.334;6.744;2022-11-20T08:46:50;101120.94;;;1.74;100.00
57656;BME280;43482;53.334;6.744;2022-11-20T08:49:15;101123.88;;;1.68;100.00
57656;BME280;43482;53.334;6.744;2022-11-20T08:51:41;101125.41;;;1.72;100.00
57656;BME280;43482;53.334;6.744;2022-11-20T08:54:07;101103.00;;;1.69;100.00
57656;BME280;43482;53.334;6.744;2022-11-20T08:56:33;101128.50;;;1.78;100.00
57656;BME280;43482;53.334;6.744;2022-11-20T08:58:58;101117.13;;;1.95;100.00
57656;BME280;43482;53.334;6.744;2022-11-20T09:01:27;101119.94;;;2.06;100.00
57656;BME280;43482;53.334;6.744;2022-11-20T09:03:57;101100.63;;;2.11;100.00
57656;BME280;43482;53.334;6.744;2022-11-20T09:06:23;101121.91;;;2.33;100.00
57656;BME280;43482;53.334;6.744;2022-11-20T09:08:52;101121.50;;;2.39;100.00
57656;BME280;43482;53.334;6.744;2022-11-20T09:11:17;101123.69;;;2.47;100.00
57656;BME280;43482;53.334;6.744;2022-11-20T09:13:43;101114.75;;;2.51;100.00
57656;BME280;43482;53.334;6.744;2022-11-20T09:16:08;101112.06;;;2.53;100.00
57656;BME280;43482;53.334;6.744;2022-11-20T09:18:35;101109.81;;;2.46;100.00
57656;BME280;43482;53.334;6.744;2022-11-20T09:21:09;101109.34;;;2.40;100.00
57656;BME280;43482;53.334;6.744;2022-11-20T09:23:38;101104.47;;;2.19;100.00
57656;BME280;43482;53.334;6.744;2022-11-20T09:26:09;101079.25;;;2.05;100.00
57656;BME280;43482;53.334;6.744;2022-11-20T09:28:35;101100.00;;;2.21;100.00
57656;BME280;43482;53.334;6.744;2022-11-20T09:31:05;101096.22;;;2.27;100.00
57656;BME280;43482;53.334;6.744;2022-11-20T09:33:30;101094.50;;;2.26;100.00
57656;BME280;43482;53.334;6.744;2022-11-20T09:35:56;101094.16;;;2.32;100.00
57656;BME280;43482;53.334;6.744;2022-11-20T09:38:21;101094.50;;;2.26;100.00
57656;BME280;43482;53.334;6.744;2022-11-20T09:41:04;101091.16;;;2.24;100.00
57656;BME280;43482;53.334;6.744;2022-11-20T09:44:02;101086.16;;;2.21;100.00
57656;BME280;43482;53.334;6.744;2022-11-20T09:46:41;101089.41;;;2.24;100.00
57656;BME280;43482;53.334;6.744;2022-11-20T09:54:49;101083.81;;;2.31;100.00
57656;BME280;43482;53.334;6.744;2022-11-20T09:57:20;101072.94;;;2.24;100.00
57656;BME280;43482;53.334;6.744;2022-11-20T09:59:52;101094.16;;;2.32;100.00
57656;BME280;43482;53.334;6.744;2022-11-20T10:04:57;101084.47;;;2.20;100.00
57656;BME280;43482;53.334;6.744;2022-11-20T10:07:52;101070.59;;;2.05;100.00
57656;BME280;43482;53.334;6.744;2022-11-20T10:10:23;101080.75;;;2.24;100.00
57656;BME280;43482;53.334;6.744;2022-11-20T10:13:14;101067.44;;;2.29;100.00
57656;BME280;43482;53.334;6.744;2022-11-20T10:15:56;101072.03;;;2.39;100.00
57656;BME280;43482;53.334;6.744;2022-11-20T10:18:43;101073.63;;;2.42;100.00
57656;BME280;43482;53.334;6.744;2022-11-20T10:21:18;101076.47;;;2.37;100.00
57656;BME280;43482;53.334;6.744;2022-11-20T10:24:12;101072.31;;;2.49;100.00
57656;BME280;43482;53.334;6.744;2022-11-20T10:29:36;101026.25;;;2.50;100.00
57656;BME280;43482;53.334;6.744;2022-11-20T10:32:09;101049.50;;;2.81;100.00
57656;BME280;43482;53.334;6.744;2022-11-20T10:37:24;101028.28;;;2.73;100.00
57656;BME280;43482;53.334;6.744;2022-11-20T10:42:39;101015.91;;;2.77;100.00
57656;BME280;43482;53.334;6.744;2022-11-20T10:45:31;101034.03;;;2.78;100.00
57656;BME280;43482;53.334;6.744;2022-11-20T10:48:21;101010.13;;;2.72;100.00
57656;BME280;43482;53.334;6.744;2022-11-20T10:56:52;101018.09;;;2.97;100.00
57656;BME280;43482;53.334;6.744;2022-11-20T11:01:58;101026.91;;;3.63;100.00
57656;BME280;43482;53.334;6.744;2022-11-20T11:04:40;101028.06;;;3.72;100.00
57656;BME280;43482;53.334;6.744;2022-11-20T11:09:49;101023.94;;;3.95;100.00
57656;BME280;43482;53.334;6.744;2022-11-20T11:12:14;101015.25;;;3.82;98.48
57656;BME280;43482;53.334;6.744;2022-11-20T11:14:54;100996.38;;;3.38;97.53
57656;BME280;43482;53.334;6.744;2022-11-20T11:17:28;100986.09;;;3.35;99.84
57656;BME280;43482;53.334;6.744;2022-11-20T11:19:58;100982.84;;;3.19;100.00
57656;BME280;43482;53.334;6.744;2022-11-20T11:22:23;100999.31;;;3.46;100.00
57656;BME280;43482;53.334;6.744;2022-11-20T11:24:53;100984.63;;;3.18;98.41
57656;BME280;43482;53.334;6.744;2022-11-20T11:27:19;100993.19;;;3.33;100.00
57656;BME280;43482;53.334;6.744;2022-11-20T11:29:48;100984.09;;;3.53;98.42
57656;BME280;43482;53.334;6.744;2022-11-20T11:32:20;100955.38;;;3.53;98.01
57656;BME280;43482;53.334;6.744;2022-11-20T11:35:04;100993.84;;;4.28;97.42
57656;BME280;43482;53.334;6.744;2022-11-20T11:37:34;101003.63;;;4.63;92.62
57656;BME280;43482;53.334;6.744;2022-11-20T11:40:02;101008.78;;;4.51;90.51
57656;BME280;43482;53.334;6.744;2022-11-20T11:42:29;100994.56;;;4.43;91.49
57656;BME280;43482;53.334;6.744;2022-11-20T11:44:57;101001.13;;;4.48;91.94
57656;BME280;43482;53.334;6.744;2022-11-20T11:47:32;101001.69;;;4.41;91.29
57656;BME280;43482;53.334;6.744;2022-11-20T11:52:38;100991.88;;;3.93;90.95
57656;BME280;43482;53.334;6.744;2022-11-20T11:55:09;100979.94;;;3.89;91.43
57656;BME280;43482;53.334;6.744;2022-11-20T11:57:52;100995.00;;;3.98;91.51
57656;BME280;43482;53.334;6.744;2022-11-20T12:00:19;100992.69;;;4.06;93.02
57656;BME280;43482;53.334;6.744;2022-11-20T12:05:23;100961.78;;;4.13;91.12
57656;BME280;43482;53.334;6.744;2022-11-20T12:07:55;100975.78;;;4.25;91.15
57656;BME280;43482;53.334;6.744;2022-11-20T12:10:34;100963.97;;;4.19;90.86
57656;BME280;43482;53.334;6.744;2022-11-20T12:15:53;100968.66;;;3.76;89.56
57656;BME280;43482;53.334;6.744;2022-11-20T12:18:21;100968.34;;;3.67;91.14
57656;BME280;43482;53.334;6.744;2022-11-20T12:21:19;100956.19;;;3.41;91.97
57656;BME280;43482;53.334;6.744;2022-11-20T12:39:49;100945.53;;;3.31;99.68
57656;BME280;43482;53.334;6.744;2022-11-20T12:45:10;100941.94;;;3.19;96.61
57656;BME280;43482;53.334;6.744;2022-11-20T12:47:56;100930.38;;;3.23;96.76
57656;BME280;43482;53.334;6.744;2022-11-20T12:50:47;100935.72;;;2.95;93.29
57656;BME280;43482;53.334;6.744;2022-11-20T12:58:38;100934.81;;;3.08;92.83
57656;BME280;43482;53.334;6.744;2022-11-20T13:04:12;100906.63;;;2.74;91.98
57656;BME280;43482;53.334;6.744;2022-11-20T13:06:43;100905.94;;;2.84;92.14
57656;BME280;43482;53.334;6.744;2022-11-20T13:09:11;100925.84;;;3.13;92.07
57656;BME280;43482;53.334;6.744;2022-11-20T13:11:48;100925.81;;;3.27;93.30
57656;BME280;43482;53.334;6.744;2022-11-20T13:17:19;100917.66;;;3.32;94.44
57656;BME280;43482;53.334;6.744;2022-11-20T13:19:55;100915.34;;;3.14;94.08
57656;BME280;43482;53.334;6.744;2022-11-20T13:22:54;100906.38;;;3.18;95.61
57656;BME280;43482;53.334;6.744;2022-11-20T13:25:34;100896.47;;;3.23;96.73
57656;BME280;43482;53.334;6.744;2022-11-20T13:28:03;100874.47;;;3.27;96.80
57656;BME280;43482;53.334;6.744;2022-11-20T13:30:30;100892.44;;;3.45;96.90
57656;BME280;43482;53.334;6.744;2022-11-20T13:36:22;100881.88;;;3.34;91.60
57656;BME280;43482;53.334;6.744;2022-11-20T13:38:53;100871.13;;;3.25;88.69
57656;BME280;43482;53.334;6.744;2022-11-20T13:41:35;100875.19;;;3.29;88.17
57656;BME280;43482;53.334;6.744;2022-11-20T13:46:41;100875.72;;;3.35;89.36
57656;BME280;43482;53.334;6.744;2022-11-20T13:49:15;100869.25;;;3.27;89.10
57656;BME280;43482;53.334;6.744;2022-11-20T13:51:47;100870.91;;;3.28;89.52
57656;BME280;43482;53.334;6.744;2022-11-20T13:57:08;100862.59;;;3.49;91.62
57656;BME280;43482;53.334;6.744;2022-11-20T13:59:58;100861.09;;;3.32;90.20
57656;BME280;43482;53.334;6.744;2022-11-20T14:02:27;100859.63;;;3.15;85.46
57656;BME280;43482;53.334;6.744;2022-11-20T14:04:57;100853.34;;;3.05;80.38
57656;BME280;43482;53.334;6.744;2022-11-20T14:07:27;100849.41;;;3.12;80.12
57656;BME280;43482;53.334;6.744;2022-11-20T14:09:57;100847.22;;;3.19;83.40
57656;BME280;43482;53.334;6.744;2022-11-20T14:12:31;100815.56;;;2.98;82.59
57656;BME280;43482;53.334;6.744;2022-11-20T14:14:56;100835.75;;;3.21;82.78
57656;BME280;43482;53.334;6.744;2022-11-20T14:17:31;100810.16;;;3.01;81.66
57656;BME280;43482;53.334;6.744;2022-11-20T14:20:01;100827.28;;;3.05;82.85
57656;BME280;43482;53.334;6.744;2022-11-20T14:22:27;100832.91;;;2.99;85.17